createdAt,value
2018-08-25T00:01:41.553Z,80.15
2018-08-25T00:04:26.450Z,80.18
2018-08-25T00:07:11.256Z,80.13
2018-08-25T00:09:56.061Z,79.89
2018-08-25T00:12:40.794Z,79.48
2018-08-25T00:15:25.620Z,77.32
2018-08-25T00:18:11.464Z,77.30
2018-08-25T00:20:56.353Z,75.38
2018-08-25T00:23:41.399Z,74.71
2018-08-25T00:26:26.143Z,73.27
2018-08-25T00:29:11.121Z,74.71
2018-08-25T00:31:55.922Z,73.21
2018-08-25T00:34:40.833Z,73.93
2018-08-25T00:37:25.636Z,74.14
2018-08-25T00:40:10.560Z,75.00
2018-08-25T00:42:55.329Z,75.82
2018-08-25T00:45:40.206Z,76.29
2018-08-25T00:48:25.184Z,76.66
2018-08-25T00:51:10.045Z,78.32
2018-08-25T00:53:54.840Z,80.42
2018-08-25T00:56:39.926Z,79.95
2018-08-25T00:59:24.884Z,80.85
2018-08-25T01:02:09.720Z,80.84
2018-08-25T01:04:54.862Z,81.14
2018-08-25T01:07:39.715Z,81.74
2018-08-25T01:10:24.678Z,80.71
2018-08-25T01:13:09.904Z,80.04
2018-08-25T01:15:54.707Z,79.52
2018-08-25T01:18:39.588Z,79.86
2018-08-25T01:21:24.343Z,80.57
2018-08-25T01:24:09.147Z,81.60
2018-08-25T01:26:53.959Z,82.08
2018-08-25T01:29:38.722Z,81.53
2018-08-25T01:32:23.548Z,81.10
2018-08-25T01:35:08.348Z,79.44
2018-08-25T01:37:53.077Z,79.61
2018-08-25T01:40:37.838Z,78.58
2018-08-25T01:43:22.680Z,79.41
2018-08-25T01:46:07.562Z,79.05
2018-08-25T01:48:52.337Z,80.27
2018-08-25T01:51:37.112Z,79.64
2018-08-25T01:54:21.913Z,81.42
2018-08-25T01:57:06.703Z,82.89
2018-08-25T01:59:51.619Z,82.83
2018-08-25T02:02:36.403Z,83.32
2018-08-25T02:05:21.176Z,82.30
2018-08-25T02:08:06.406Z,82.27
2018-08-25T02:10:51.314Z,82.53
2018-08-25T02:13:36.090Z,82.63
2018-08-25T02:16:20.958Z,82.68
2018-08-25T02:19:06.139Z,83.16
2018-08-25T02:21:51.232Z,83.61
2018-08-25T02:24:36.021Z,84.31
2018-08-25T02:27:20.788Z,83.39
2018-08-25T02:30:05.886Z,83.81
2018-08-25T02:32:50.661Z,83.57
2018-08-25T02:35:35.530Z,82.55
2018-08-25T02:38:20.238Z,83.34
2018-08-25T02:41:05.426Z,83.61
2018-08-25T02:43:50.194Z,83.58
2018-08-25T02:46:35.148Z,84.35
2018-08-25T02:49:19.946Z,83.83
2018-08-25T02:52:04.713Z,84.00
2018-08-25T02:54:49.424Z,83.56
2018-08-25T02:57:34.230Z,83.61
2018-08-25T03:00:19.061Z,84.15
2018-08-25T03:03:03.852Z,84.38
2018-08-25T03:05:48.622Z,84.94
2018-08-25T03:08:33.387Z,84.92
2018-08-25T03:11:18.176Z,85.81
2018-08-25T03:14:02.887Z,86.07
2018-08-25T03:16:47.804Z,86.30
2018-08-25T03:19:32.639Z,86.65
2018-08-25T03:22:17.351Z,87.16
2018-08-25T03:25:02.134Z,87.75
2018-08-25T03:27:46.867Z,86.60
2018-08-25T03:30:31.678Z,86.30
2018-08-25T03:33:16.707Z,86.89
2018-08-25T03:36:01.389Z,86.50
2018-08-25T03:38:46.112Z,86.32
2018-08-25T03:41:30.933Z,86.66
2018-08-25T03:44:15.691Z,86.86
2018-08-25T03:47:00.403Z,87.08
2018-08-25T03:49:45.226Z,86.90
2018-08-25T03:52:30.079Z,86.77
2018-08-25T03:55:14.944Z,86.65
2018-08-25T03:57:59.700Z,87.17
2018-08-25T04:00:44.545Z,87.84
2018-08-25T04:03:29.367Z,88.16
2018-08-25T04:06:14.151Z,88.02
2018-08-25T04:08:59.167Z,87.74
2018-08-25T04:11:43.996Z,87.21
2018-08-25T04:14:28.747Z,86.63
2018-08-25T04:17:13.676Z,86.49
2018-08-25T04:19:58.565Z,86.29
2018-08-25T04:22:43.281Z,86.52
2018-08-25T04:25:28.072Z,86.25
2018-08-25T04:28:12.885Z,86.43
2018-08-25T04:30:57.659Z,87.50
2018-08-25T04:33:42.464Z,87.53
2018-08-25T04:36:27.317Z,88.05
2018-08-25T04:39:12.875Z,89.10
2018-08-25T04:41:57.781Z,88.95
2018-08-25T04:44:42.760Z,89.18
2018-08-25T04:47:27.473Z,88.61
2018-08-25T04:50:12.286Z,88.25
2018-08-25T04:52:57.032Z,86.91
2018-08-25T04:55:41.887Z,85.45
2018-08-25T04:58:26.771Z,85.00
2018-08-25T05:01:14.505Z,83.47
2018-08-25T05:03:59.339Z,83.64
2018-08-25T05:06:44.202Z,83.44
2018-08-25T05:09:29.040Z,82.50
2018-08-25T05:12:13.798Z,82.72
2018-08-25T05:14:58.794Z,82.81
2018-08-25T05:17:43.668Z,82.48
2018-08-25T05:20:28.437Z,81.59
2018-08-25T05:23:13.224Z,81.99
2018-08-25T05:25:58.003Z,81.46
2018-08-25T05:28:42.793Z,80.24
2018-08-25T05:31:27.524Z,80.25
2018-08-25T05:34:12.350Z,79.51
2018-08-25T05:36:57.166Z,79.05
2018-08-25T05:39:42.046Z,79.03
2018-08-25T05:42:27.062Z,79.66
2018-08-25T05:45:11.846Z,79.64
2018-08-25T05:47:56.657Z,78.25
2018-08-25T05:50:41.463Z,78.64
2018-08-25T05:53:26.254Z,77.16
2018-08-25T05:56:11.067Z,75.90
2018-08-25T05:58:55.834Z,76.36
2018-08-25T06:01:40.628Z,75.45
2018-08-25T06:04:25.454Z,75.29
2018-08-25T06:07:10.252Z,75.18
2018-08-25T06:09:55.181Z,74.84
2018-08-25T06:12:40.077Z,74.31
2018-08-25T06:15:24.853Z,72.76
2018-08-25T06:18:09.744Z,72.59
2018-08-25T06:20:54.583Z,73.75
2018-08-25T06:23:39.428Z,73.97
2018-08-25T06:26:24.189Z,74.58
2018-08-25T06:29:08.970Z,73.47
2018-08-25T06:31:53.803Z,72.84
2018-08-25T06:34:38.528Z,72.20
2018-08-25T06:37:23.371Z,73.03
2018-08-25T06:40:08.371Z,73.98
2018-08-25T06:42:53.202Z,72.87
2018-08-25T06:45:37.964Z,74.11
2018-08-25T06:48:22.750Z,72.98
2018-08-25T06:51:07.637Z,71.18
2018-08-25T06:53:52.436Z,69.99
2018-08-25T06:56:37.214Z,69.80
2018-08-25T06:59:22.070Z,69.73
2018-08-25T07:02:06.960Z,70.28
2018-08-25T07:04:51.815Z,69.77
2018-08-25T07:07:36.926Z,72.81
2018-08-25T07:10:21.763Z,71.27
2018-08-25T07:13:06.734Z,72.16
2018-08-25T07:15:51.636Z,71.86
2018-08-25T07:18:36.482Z,72.37
2018-08-25T07:21:21.333Z,69.84
2018-08-25T07:24:06.177Z,71.50
2018-08-25T07:26:50.954Z,71.85
2018-08-25T07:29:35.692Z,70.31
2018-08-25T07:32:20.552Z,71.28
2018-08-25T07:35:05.548Z,68.16
2018-08-25T07:37:50.364Z,68.14
2018-08-25T07:40:35.267Z,63.71
2018-08-25T07:43:19.966Z,62.89
2018-08-25T07:46:04.991Z,64.12
2018-08-25T07:48:49.798Z,62.56
2018-08-25T07:51:34.719Z,62.60
2018-08-25T07:54:19.600Z,61.31
2018-08-25T07:57:04.345Z,62.01
2018-08-25T07:59:49.200Z,63.64
2018-08-25T08:02:34.069Z,64.03
2018-08-25T08:05:18.875Z,66.01
2018-08-25T08:08:03.643Z,65.75
2018-08-25T08:10:48.447Z,65.74
2018-08-25T08:13:33.197Z,65.22
2018-08-25T08:16:18.086Z,68.96
2018-08-25T08:19:02.968Z,64.59
2018-08-25T08:21:47.786Z,67.11
2018-08-25T08:24:32.634Z,67.65
2018-08-25T08:27:17.669Z,66.30
2018-08-25T08:30:02.510Z,66.12
2018-08-25T08:32:47.361Z,64.09
2018-08-25T08:35:32.108Z,64.22
2018-08-25T08:38:16.990Z,64.69
2018-08-25T08:41:01.897Z,65.91
2018-08-25T08:43:46.680Z,69.07
2018-08-25T08:46:36.442Z,71.00
2018-08-25T08:49:21.231Z,68.29
2018-08-25T08:52:06.169Z,66.99
2018-08-25T08:54:51.042Z,70.27
2018-08-25T08:57:35.855Z,69.04
2018-08-25T09:00:20.721Z,71.39
2018-08-25T09:03:05.694Z,71.28
2018-08-25T09:05:50.861Z,72.09
2018-08-25T09:08:35.657Z,70.63
2018-08-25T09:11:20.664Z,70.06
2018-08-25T09:14:05.611Z,70.37
2018-08-25T09:16:50.508Z,70.73
2018-08-25T09:19:35.360Z,70.12
2018-08-25T09:22:20.190Z,68.53
2018-08-25T09:25:05.080Z,71.45
2018-08-25T09:27:49.900Z,70.87
2018-08-25T09:30:34.674Z,67.74
2018-08-25T09:33:19.524Z,70.47
2018-08-25T09:36:04.460Z,70.40
2018-08-25T09:38:49.465Z,68.71
2018-08-25T09:41:34.238Z,70.37
2018-08-25T09:44:19.061Z,69.40
2018-08-25T09:47:03.832Z,68.95
2018-08-25T09:49:48.659Z,69.46
2018-08-25T09:52:33.442Z,70.92
2018-08-25T09:55:18.208Z,69.35
2018-08-25T09:58:03.116Z,67.95
2018-08-25T10:00:52.044Z,69.31
2018-08-25T10:03:36.833Z,69.79
2018-08-25T10:06:21.635Z,68.50
2018-08-25T10:09:09.164Z,68.36
2018-08-25T10:11:54.220Z,68.42
2018-08-25T10:14:38.969Z,65.77
2018-08-25T10:17:23.831Z,62.87
2018-08-25T10:20:08.707Z,64.48
2018-08-25T10:22:53.538Z,63.21
2018-08-25T10:25:38.336Z,65.57
2018-08-25T10:28:23.184Z,63.49
2018-08-25T10:31:08.108Z,62.30
2018-08-25T10:33:52.967Z,62.47
2018-08-25T10:36:37.856Z,62.92
2018-08-25T10:39:22.591Z,59.89
2018-08-25T10:42:09.113Z,62.49
2018-08-25T10:44:53.965Z,60.14
2018-08-25T10:47:38.931Z,59.28
2018-08-25T10:50:23.836Z,61.68
2018-08-25T10:53:08.748Z,61.49
2018-08-25T10:55:53.615Z,58.99
2018-08-25T10:58:38.501Z,59.90
2018-08-25T11:01:23.387Z,59.53
2018-08-25T11:04:08.238Z,58.81
2018-08-25T11:06:53.086Z,57.94
2018-08-25T11:09:37.947Z,59.43
2018-08-25T11:12:23.004Z,57.83
2018-08-25T11:15:07.906Z,57.61
2018-08-25T11:17:52.770Z,57.99
2018-08-25T11:20:37.643Z,55.12
2018-08-25T11:23:22.467Z,54.78
2018-08-25T11:26:07.423Z,55.51
2018-08-25T11:28:52.317Z,54.94
2018-08-25T11:31:37.226Z,54.41
2018-08-25T11:34:22.055Z,53.39
2018-08-25T11:37:07.557Z,53.24
2018-08-25T11:39:52.325Z,52.03
2018-08-25T11:42:37.120Z,52.00
2018-08-25T11:45:21.947Z,52.74
2018-08-25T11:48:06.804Z,54.68
2018-08-25T11:50:51.640Z,54.76
2018-08-25T11:53:36.398Z,57.23
2018-08-25T11:56:21.170Z,64.41
2018-08-25T11:59:06.045Z,64.55
2018-08-25T12:01:50.930Z,66.96
2018-08-25T12:04:35.773Z,72.91
2018-08-25T12:07:20.737Z,75.48
2018-08-25T12:10:05.902Z,74.90
2018-08-25T12:12:50.700Z,78.75
2018-08-25T12:15:35.545Z,73.95
2018-08-25T12:18:20.396Z,74.29
2018-08-25T12:21:05.204Z,77.55
2018-08-25T12:23:49.971Z,78.25
2018-08-25T12:26:35.146Z,77.22
2018-08-25T12:29:19.893Z,79.17
2018-08-25T12:32:04.746Z,75.30
2018-08-25T12:34:49.552Z,76.83
2018-08-25T12:37:34.332Z,75.34
2018-08-25T12:40:20.075Z,75.52
2018-08-25T12:43:05.062Z,76.44
2018-08-25T12:45:49.899Z,75.56
2018-08-25T12:49:58.459Z,78.09
2018-08-25T12:53:03.459Z,77.61
2018-08-25T12:56:08.356Z,74.83
2018-08-25T12:59:13.123Z,74.94
2018-08-25T13:02:18.040Z,73.61
2018-08-25T13:05:22.740Z,72.46
2018-08-25T13:08:27.534Z,69.37
2018-08-25T13:11:32.398Z,67.88
2018-08-25T13:14:37.235Z,67.97
2018-08-25T13:17:41.981Z,70.67
2018-08-25T13:20:46.732Z,69.31
2018-08-25T13:23:51.612Z,67.34
2018-08-25T13:26:56.519Z,68.95
2018-08-25T13:30:01.321Z,65.90
2018-08-25T13:33:06.223Z,67.56
2018-08-25T13:36:11.048Z,68.00
2018-08-25T13:39:16.833Z,67.02
2018-08-25T13:42:21.911Z,66.94
2018-08-25T13:45:26.818Z,67.72
2018-08-25T13:48:31.616Z,64.16
2018-08-25T13:51:36.524Z,64.38
2018-08-25T13:54:41.692Z,60.94
2018-08-25T13:57:46.520Z,59.50
2018-08-25T14:00:51.339Z,58.86
2018-08-25T14:03:56.412Z,60.92
2018-08-25T14:07:01.424Z,58.69
2018-08-25T14:10:06.447Z,57.61
2018-08-25T14:13:11.298Z,55.64
2018-08-25T14:16:16.340Z,54.48
2018-08-25T14:19:21.127Z,53.42
2018-08-25T14:22:25.912Z,50.12
2018-08-25T14:25:30.719Z,44.02
2018-08-25T14:28:35.684Z,45.26
2018-08-25T14:31:40.502Z,45.69
2018-08-25T14:34:45.346Z,44.99
2018-08-25T14:37:50.288Z,43.67
2018-08-25T14:40:55.056Z,46.62
2018-08-25T14:43:59.859Z,45.85
2018-08-25T14:47:04.807Z,45.72
2018-08-25T14:50:09.653Z,47.65
2018-08-25T14:53:14.683Z,45.27
2018-08-25T14:56:19.798Z,44.30
2018-08-25T14:59:24.656Z,41.66
2018-08-25T15:02:29.510Z,43.17
2018-08-25T15:05:34.392Z,44.20
2018-08-25T15:08:39.180Z,42.83
2018-08-25T15:11:45.165Z,40.47
2018-08-25T15:14:49.957Z,40.88
2018-08-25T15:17:54.862Z,45.64
2018-08-25T15:20:59.628Z,39.78
2018-08-25T15:24:04.334Z,40.72
2018-08-25T15:27:09.190Z,41.27
2018-08-25T15:30:14.051Z,37.01
2018-08-25T15:33:18.796Z,38.46
2018-08-25T15:36:23.585Z,37.85
2018-08-25T15:39:28.320Z,42.83
2018-08-25T15:42:33.094Z,40.68
2018-08-25T15:45:37.962Z,37.76
2018-08-25T15:48:42.842Z,37.06
2018-08-25T15:51:47.629Z,37.89
2018-08-25T15:54:52.598Z,40.71
2018-08-25T15:57:57.653Z,41.04
2018-08-25T16:01:02.370Z,39.42
2018-08-25T16:04:07.483Z,41.03
2018-08-25T16:07:12.387Z,42.65
2018-08-25T16:10:17.262Z,42.58
2018-08-25T16:13:22.140Z,47.87
2018-08-25T16:16:26.899Z,44.57
2018-08-25T16:19:31.657Z,45.35
2018-08-25T16:22:36.495Z,46.36
2018-08-25T16:25:41.328Z,49.63
2018-08-25T16:28:46.125Z,50.16
2018-08-25T16:31:50.973Z,51.44
2018-08-25T16:34:55.761Z,50.54
2018-08-25T16:38:00.668Z,50.31
2018-08-25T16:41:05.474Z,48.73
2018-08-25T16:44:10.324Z,49.26
2018-08-25T16:47:15.177Z,51.68
2018-08-25T16:50:20.159Z,51.60
2018-08-25T16:53:24.983Z,45.21
2018-08-25T16:56:29.786Z,48.35
2018-08-25T16:59:34.662Z,51.88
2018-08-25T17:02:39.488Z,52.89
2018-08-25T17:05:44.273Z,54.45
2018-08-25T17:08:49.032Z,54.44
2018-08-25T17:11:53.926Z,48.86
2018-08-25T17:14:58.719Z,50.49
2018-08-25T17:18:03.645Z,54.63
2018-08-25T17:21:08.533Z,55.14
2018-08-25T17:24:13.394Z,56.83
2018-08-25T17:27:18.200Z,57.91
2018-08-25T17:30:23.029Z,58.75
2018-08-25T17:33:28.031Z,58.43
2018-08-25T17:36:32.836Z,58.14
2018-08-25T17:39:37.768Z,58.37
2018-08-25T17:42:42.563Z,58.59
2018-08-25T17:45:47.356Z,59.98
2018-08-25T17:48:52.184Z,60.30
2018-08-25T17:51:56.921Z,60.54
2018-08-25T17:55:01.735Z,59.60
2018-08-25T17:58:06.713Z,58.38
2018-08-25T18:01:11.576Z,58.25
2018-08-25T18:04:16.506Z,59.31
2018-08-25T18:07:21.350Z,61.08
2018-08-25T18:10:26.216Z,59.30
2018-08-25T18:13:31.196Z,58.62
2018-08-25T18:16:36.031Z,61.28
2018-08-25T18:19:40.840Z,63.07
2018-08-25T18:22:45.827Z,64.10
2018-08-25T18:25:50.735Z,63.70
2018-08-25T18:28:55.600Z,63.77
2018-08-25T18:32:00.572Z,66.65
2018-08-25T18:35:05.538Z,67.40
2018-08-25T18:38:10.362Z,69.43
2018-08-25T18:41:15.141Z,70.29
2018-08-25T18:44:20.190Z,72.31
2018-08-25T18:47:25.065Z,71.80
2018-08-25T18:50:30.927Z,71.22
2018-08-25T18:53:35.792Z,71.38
2018-08-25T18:56:40.648Z,71.33
2018-08-25T18:59:45.387Z,72.60
2018-08-25T19:02:50.197Z,73.63
2018-08-25T19:05:55.208Z,74.01
2018-08-25T19:09:00.152Z,75.22
2018-08-25T19:12:05.020Z,74.98
2018-08-25T19:15:09.976Z,75.51
2018-08-25T19:18:14.965Z,76.20
2018-08-25T19:21:19.834Z,75.26
2018-08-25T19:24:24.729Z,74.61
2018-08-25T19:27:29.470Z,72.49
2018-08-25T19:30:34.396Z,73.65
2018-08-25T19:33:39.944Z,74.96
2018-08-25T19:36:44.815Z,75.47
2018-08-25T19:39:49.693Z,75.94
2018-08-25T19:42:54.945Z,77.11
2018-08-25T19:45:59.822Z,78.39
2018-08-25T19:49:04.684Z,79.15
2018-08-25T19:52:09.495Z,78.43
2018-08-25T19:55:15.209Z,79.75
2018-08-25T19:58:20.133Z,79.12
2018-08-25T20:01:25.199Z,79.96
2018-08-25T20:04:30.067Z,79.54
2018-08-25T20:07:34.891Z,79.31
2018-08-25T20:10:39.764Z,79.71
2018-08-25T20:13:44.732Z,79.98
2018-08-25T20:16:49.529Z,80.42
2018-08-25T20:19:54.363Z,81.16
2018-08-25T20:22:59.305Z,81.07
2018-08-25T20:26:04.175Z,80.62
2018-08-25T20:29:10.027Z,81.08
2018-08-25T20:32:17.248Z,81.02
2018-08-25T20:35:22.208Z,81.33
2018-08-25T20:38:27.058Z,81.88
2018-08-25T20:41:31.984Z,82.09
2018-08-25T20:44:36.852Z,82.39
2018-08-25T20:47:41.900Z,82.89
2018-08-25T20:50:46.620Z,82.90
2018-08-25T20:53:51.490Z,82.97
2018-08-25T20:56:56.446Z,83.99
2018-08-25T21:00:01.364Z,83.90
2018-08-25T21:03:06.256Z,84.66
2018-08-25T21:06:11.099Z,84.82
2018-08-25T21:09:15.989Z,84.97
2018-08-25T21:12:20.832Z,85.27
2018-08-25T21:15:25.742Z,84.75
2018-08-25T21:18:30.627Z,85.13
2018-08-25T21:21:35.581Z,85.66
2018-08-25T21:24:40.489Z,85.08
2018-08-25T21:27:45.377Z,85.07
2018-08-25T21:30:50.237Z,86.08
2018-08-25T21:33:55.550Z,85.62
2018-08-25T21:37:00.560Z,86.35
2018-08-25T21:40:05.515Z,86.92
2018-08-25T21:43:10.417Z,87.13
2018-08-25T21:46:15.392Z,86.12
2018-08-25T21:49:20.132Z,85.51
2018-08-25T21:52:24.948Z,85.51
2018-08-25T21:55:30.091Z,85.41
2018-08-25T21:58:36.627Z,85.89
2018-08-25T22:01:41.410Z,85.74
2018-08-25T22:04:46.660Z,86.43
2018-08-25T22:07:51.474Z,86.18
2018-08-25T22:10:56.356Z,86.74
2018-08-25T22:14:01.138Z,86.63
2018-08-25T22:17:06.363Z,86.26
2018-08-25T22:20:11.157Z,86.68
2018-08-25T22:23:16.129Z,86.06
2018-08-25T22:26:20.936Z,86.46
2018-08-25T22:29:25.842Z,86.21
2018-08-25T22:32:30.693Z,86.61
2018-08-25T22:35:35.481Z,87.04
2018-08-25T22:38:40.373Z,87.37
2018-08-25T22:41:45.291Z,87.02
2018-08-25T22:44:50.116Z,87.05
2018-08-25T22:47:54.891Z,87.33
2018-08-25T22:50:59.744Z,87.01
2018-08-25T22:54:04.592Z,87.74
2018-08-25T22:57:09.370Z,88.21
2018-08-25T23:00:14.343Z,87.87
2018-08-25T23:03:19.103Z,88.30
2018-08-25T23:06:23.987Z,88.43
2018-08-25T23:09:28.866Z,88.72
2018-08-25T23:12:34.368Z,88.59
2018-08-25T23:15:39.134Z,88.39
2018-08-25T23:18:44.021Z,88.03
2018-08-25T23:21:48.806Z,88.12
2018-08-25T23:24:53.571Z,88.33
2018-08-25T23:27:58.501Z,88.41
2018-08-25T23:31:03.194Z,88.89
2018-08-25T23:34:07.959Z,88.83
2018-08-25T23:37:13.036Z,89.31
2018-08-25T23:40:18.031Z,89.60
2018-08-25T23:43:22.788Z,89.74
2018-08-25T23:46:27.550Z,90.41
2018-08-25T23:49:32.413Z,89.66
2018-08-25T23:52:37.867Z,90.27
2018-08-25T23:55:42.661Z,89.97
2018-08-25T23:58:47.823Z,90.19
